Time;durP1;ratioP1;P1;durP2;ratioP2;P2;SDS_P1;SDS_P2;PMS_P1;PMS_P2;Temp;Humidity;BMP_temperature;BMP_pressure;BME280_temperature;BME280_humidity;BME280_pressure;Samples;Min_cycle;Max_cycle;Signal;HPM_P1;HPM_P2
2022/12/11 00:02:24;;;;;;;13.55;7.25;;;;;;;;;;5052454;28;20044;-79
2022/12/11 00:04:50;;;;;;;11.90;6.40;;;;;;;;;;5063449;28;20024;-81
2022/12/11 00:07:16;;;;;;;14.65;5.43;;;;;;;;;;5062970;28;20136;-79
2022/12/11 00:09:42;;;;;;;19.42;6.45;;;;;;;;;;5058712;28;20496;-78
2022/12/11 00:12:08;;;;;;;15.98;7.38;;;;;;;;;;5060743;28;20366;-79
2022/12/11 00:14:33;;;;;;;7.90;4.78;;;;;;;;;;5057171;28;20024;-79
2022/12/11 00:16:59;;;;;;;11.27;5.93;;;;;;;;;;5061620;28;20051;-79
2022/12/11 00:19:25;;;;;;;15.95;6.90;;;;;;;;;;5060243;28;20029;-78
2022/12/11 00:21:51;;;;;;;17.00;6.82;;;;;;;;;;5056649;28;20052;-79
2022/12/11 00:24:17;;;;;;;10.75;5.50;;;;;;;;;;5059596;28;20028;-79
2022/12/11 00:26:44;;;;;;;8.90;5.63;;;;;;;;;;5053147;28;20024;-79
2022/12/11 00:29:13;;;;;;;8.18;5.18;;;;;;;;;;5060714;28;20032;-78
2022/12/11 00:31:39;;;;;;;12.15;6.55;;;;;;;;;;5065896;28;20017;-79
2022/12/11 00:34:05;;;;;;;11.75;5.65;;;;;;;;;;5058587;28;20040;-79
2022/12/11 00:36:31;;;;;;;12.35;6.00;;;;;;;;;;5061132;28;20697;-79
2022/12/11 00:38:57;;;;;;;13.18;6.22;;;;;;;;;;5064903;28;20107;-79
2022/12/11 00:41:23;;;;;;;11.07;4.93;;;;;;;;;;5059060;28;20116;-79
2022/12/11 00:43:49;;;;;;;10.13;6.20;;;;;;;;;;5058741;28;20025;-79
2022/12/11 00:46:15;;;;;;;16.80;7.22;;;;;;;;;;5056608;28;20556;-79
2022/12/11 00:48:41;;;;;;;8.02;5.93;;;;;;;;;;5058402;28;20577;-78
2022/12/11 00:51:07;;;;;;;10.63;5.70;;;;;;;;;;5061397;28;20029;-79
2022/12/11 00:53:33;;;;;;;10.57;5.50;;;;;;;;;;5061211;28;20495;-79
2022/12/11 00:55:59;;;;;;;16.38;7.40;;;;;;;;;;5060518;28;20032;-79
2022/12/11 00:58:25;;;;;;;15.13;7.32;;;;;;;;;;5056471;28;20037;-79
2022/12/11 01:00:52;;;;;;;14.80;6.53;;;;;;;;;;5062797;28;20129;-79
2022/12/11 01:03:18;;;;;;;8.20;4.38;;;;;;;;;;5058748;28;20095;-79
2022/12/11 01:05:51;;;;;;;15.52;7.72;;;;;;;;;;5060792;28;20031;-79
2022/12/11 01:08:17;;;;;;;14.20;6.07;;;;;;;;;;5059202;28;20162;-79
2022/12/11 01:10:43;;;;;;;8.82;5.28;;;;;;;;;;5066884;28;20112;-79
2022/12/11 01:13:10;;;;;;;12.77;6.03;;;;;;;;;;5057233;28;20025;-78
2022/12/11 01:15:40;;;;;;;8.18;5.38;;;;;;;;;;5061296;28;20094;-78
2022/12/11 01:18:06;;;;;;;11.18;5.05;;;;;;;;;;5066777;28;20040;-78
2022/12/11 01:20:32;;;;;;;14.50;5.80;;;;;;;;;;5062641;28;20485;-78
2022/12/11 01:22:59;;;;;;;8.70;4.78;;;;;;;;;;5067141;28;20412;-79
2022/12/11 01:25:26;;;;;;;12.05;5.80;;;;;;;;;;5062288;28;20124;-79
2022/12/11 01:27:54;;;;;;;13.10;4.82;;;0.50;99.90;;;;;;5056997;28;20094;-78
2022/12/11 01:30:21;;;;;;;6.85;3.90;;;;;;;;;;5067884;28;20361;-79
2022/12/11 01:32:48;;;;;;;15.23;4.88;;;;;;;;;;5064433;28;20112;-78
2022/12/11 01:35:14;;;;;;;7.95;4.47;;;;;;;;;;5061341;28;20024;-78
2022/12/11 01:37:40;;;;;;;12.90;6.43;;;;;;;;;;5065516;28;20028;-78
2022/12/11 01:40:07;;;;;;;8.98;4.25;;;;;;;;;;5062661;28;20115;-79
2022/12/11 01:42:33;;;;;;;11.15;4.63;;;;;;;;;;5064463;28;20033;-80
2022/12/11 01:45:18;;;;;;;9.23;5.30;;;;;;;;;;5059273;28;20500;-78
2022/12/11 01:47:44;;;;;;;15.63;6.53;;;;;;;;;;5063448;28;20029;-79
2022/12/11 01:50:10;;;;;;;10.98;6.10;;;;;;;;;;5066662;28;20035;-79
2022/12/11 01:52:37;;;;;;;13.27;6.13;;;;;;;;;;5064254;28;20032;-78
2022/12/11 01:55:03;;;;;;;8.23;5.20;;;;;;;;;;5061096;28;20091;-79
2022/12/11 01:57:29;;;;;;;13.48;6.63;;;;;;;;;;5064257;28;20396;-78
2022/12/11 01:59:55;;;;;;;12.80;5.70;;;;;;;;;;5062378;28;20036;-79
2022/12/11 02:02:27;;;;;;;9.45;6.25;;;;;;;;;;5060338;28;20032;-78
2022/12/11 02:04:53;;;;;;;12.18;5.57;;;;;;;;;;5063553;28;20039;-79
2022/12/11 02:07:19;;;;;;;15.30;6.70;;;;;;;;;;5060244;28;20028;-80
2022/12/11 02:09:46;;;;;;;13.98;7.00;;;;;;;;;;5059326;28;20037;-79
2022/12/11 02:12:17;;;;;;;12.18;7.57;;;;;;;;;;5061691;28;20035;-79
2022/12/11 02:14:52;;;;;;;12.07;6.28;;;;;;;;;;5061898;28;20036;-79
2022/12/11 02:17:21;;;;;;;13.82;6.47;;;;;;;;;;5059140;28;20043;-79
2022/12/11 02:19:47;;;;;;;17.60;8.18;;;;;;;;;;5059556;28;20024;-78
2022/12/11 02:22:27;;;;;;;14.88;7.05;;;0.60;99.90;;;;;;5057610;28;20036;-78
2022/12/11 02:25:16;;;;;;;9.35;4.43;;;;;;;;;;5055960;28;20024;-78
2022/12/11 02:27:48;;;;;;;15.40;7.63;;;;;;;;;;5058457;28;20049;-78
2022/12/11 02:30:15;;;;;;;11.43;5.63;;;;;;;;;;5060623;28;20065;-78
2022/12/11 02:32:41;;;;;;;17.42;6.75;;;;;;;;;;5058858;28;20035;-80
2022/12/11 02:35:14;;;;;;;15.73;9.18;;;;;;;;;;5061351;28;20025;-79
2022/12/11 02:37:41;;;;;;;13.90;7.55;;;;;;;;;;5063998;28;20055;-79
2022/12/11 02:40:09;;;;;;;18.75;9.43;;;;;;;;;;5059497;28;20117;-79
2022/12/11 02:42:37;;;;;;;14.30;7.05;;;;;;;;;;5057966;28;20033;-79
2022/12/11 02:45:04;;;;;;;15.82;7.32;;;;;;;;;;5062564;28;20067;-78
2022/12/11 02:47:31;;;;;;;16.70;8.07;;;;;;;;;;5058792;28;20040;-79
2022/12/11 02:50:00;;;;;;;14.13;6.22;;;0.20;99.90;;;;;;5067619;28;20024;-80
2022/12/11 02:52:27;;;;;;;11.77;6.32;;;0.30;99.90;;;;;;5057761;28;20672;-78
2022/12/11 02:54:55;;;;;;;14.27;7.13;;;;;;;;;;5062670;28;20094;-79
2022/12/11 02:57:31;;;;;;;11.20;6.60;;;;;;;;;;5057296;28;20032;-79
2022/12/11 02:59:57;;;;;;;17.50;7.45;;;;;;;;;;5059658;28;20056;-78
2022/12/11 03:02:23;;;;;;;11.90;5.60;;;;;;;;;;5063774;28;20036;-78
2022/12/11 03:04:49;;;;;;;19.88;8.02;;;;;;;;;;5060927;28;20028;-78
2022/12/11 03:07:17;;;;;;;15.20;7.63;;;;;;;;;;5052499;28;20029;-79
2022/12/11 03:09:44;;;;;;;12.30;5.80;;;;;;;;;;5057968;28;20074;-79
2022/12/11 03:12:11;;;;;;;17.77;8.20;;;;;;;;;;5061637;28;20078;-79
2022/12/11 03:14:38;;;;;;;13.50;6.25;;;;;;;;;;5059899;28;20029;-78
2022/12/11 03:17:11;;;;;;;17.50;8.27;;;;;;;;;;5059730;28;20119;-78
2022/12/11 03:19:40;;;;;;;11.73;6.72;;;;;;;;;;5060838;28;20029;-79
2022/12/11 03:22:11;;;;;;;12.82;7.47;;;;;;;;;;5059436;28;20041;-79
2022/12/11 03:24:45;;;;;;;13.32;7.13;;;;;;;;;;5060918;28;20122;-79
2022/12/11 03:27:21;;;;;;;13.10;6.18;;;;;;;;;;5053596;28;20454;-78
2022/12/11 03:29:53;;;;;;;10.73;5.82;;;;;;;;;;5064247;28;20048;-78
2022/12/11 03:32:22;;;;;;;15.20;7.50;;;;;;;;;;5058016;28;20786;-78
2022/12/11 03:34:53;;;;;;;10.75;5.60;;;;;;;;;;5061920;28;20024;-79
2022/12/11 03:37:21;;;;;;;12.30;6.57;;;;;;;;;;5055760;28;20043;-78
2022/12/11 03:39:48;;;;;;;13.93;7.32;;;;;;;;;;5067096;28;20032;-79
2022/12/11 03:42:16;;;;;;;10.07;5.93;;;;;;;;;;5058403;28;20707;-79
2022/12/11 03:44:44;;;;;;;13.18;6.30;;;;;;;;;;5064282;28;22968;-80
2022/12/11 03:47:11;;;;;;;10.98;5.85;;;;;;;;;;5059340;28;20020;-79
2022/12/11 03:49:39;;;;;;;13.48;5.80;;;;;;;;;;5055579;28;20037;-78
2022/12/11 03:52:06;;;;;;;17.58;8.23;;;;;;;;;;5064634;28;20060;-78
2022/12/11 03:54:34;;;;;;;15.02;7.22;;;;;;;;;;5057339;28;20032;-79
2022/12/11 03:57:01;;;;;;;13.05;7.20;;;;;;;;;;5057822;28;20021;-79
2022/12/11 03:59:27;;;;;;;11.30;6.93;;;;;;;;;;5053128;28;20047;-79
2022/12/11 04:01:52;;;;;;;16.20;8.40;;;0.20;99.90;;;;;;5066307;28;20048;-78
2022/12/11 04:04:18;;;;;;;14.73;6.38;;;;;;;;;;5060392;28;20190;-79
2022/12/11 04:06:44;;;;;;;15.82;6.80;;;;;;;;;;5062504;28;20388;-78
2022/12/11 04:09:10;;;;;;;15.05;7.68;;;;;;;;;;5062708;28;20034;-79
2022/12/11 04:11:37;;;;;;;10.10;6.18;;;;;;;;;;5061613;28;20075;-78
2022/12/11 04:16:52;;;;;;;15.30;6.68;;;;;;;;;;5059228;28;20138;-78
2022/12/11 04:24:49;;;;;;;14.80;7.28;;;;;;;;;;5061837;28;20713;-79
2022/12/11 04:27:47;;;;;;;9.60;4.85;;;;;;;;;;5061496;28;20112;-78
2022/12/11 04:30:03;;;;;;;11.80;6.45;;;;;;;;;;5060539;28;20045;-79
2022/12/11 04:32:29;;;;;;;18.60;7.00;;;;;;;;;;5062456;28;20123;-79
2022/12/11 04:34:55;;;;;;;20.38;7.75;;;;;;;;;;5063756;28;20116;-79
2022/12/11 04:37:21;;;;;;;16.10;7.32;;;;;;;;;;5057536;28;20064;-79
2022/12/11 04:39:47;;;;;;;15.52;7.05;;;;;;;;;;5062288;28;20060;-78
2022/12/11 04:42:13;;;;;;;17.02;7.40;;;;;;;;;;5054421;28;20047;-80
2022/12/11 04:44:39;;;;;;;10.05;6.53;;;;;;;;;;5058820;28;20032;-79
2022/12/11 04:47:05;;;;;;;12.32;5.93;;;;;;;;;;5058963;28;20496;-79
2022/12/11 04:49:31;;;;;;;15.10;7.60;;;;;;;;;;5055167;28;20493;-79
2022/12/11 04:51:57;;;;;;;15.27;5.90;;;;;;;;;;5062432;28;20021;-79
2022/12/11 04:54:23;;;;;;;16.83;6.93;;;;;;;;;;5053802;28;20112;-78
2022/12/11 04:56:49;;;;;;;14.82;7.10;;;;;;;;;;5059168;28;21145;-78
2022/12/11 04:59:15;;;;;;;15.20;7.88;;;;;;;;;;5062161;28;20029;-79
2022/12/11 05:01:41;;;;;;;10.68;5.47;;;;;;;;;;5053055;28;20033;-80
2022/12/11 05:04:07;;;;;;;16.48;9.02;;;;;;;;;;5058576;28;20059;-80
2022/12/11 05:06:33;;;;;;;16.65;7.20;;;;;;;;;;5061025;28;20108;-80
2022/12/11 05:08:59;;;;;;;11.80;6.38;;;;;;;;;;5064810;28;20044;-78
2022/12/11 05:11:25;;;;;;;13.73;7.88;;;;;;;;;;5063518;28;20088;-79
2022/12/11 05:13:51;;;;;;;22.55;7.90;;;;;;;;;;5062200;28;20522;-80
2022/12/11 05:16:17;;;;;;;17.80;7.97;;;;;;;;;;5064429;28;20085;-80
2022/12/11 05:18:43;;;;;;;13.43;8.32;;;;;;;;;;5064211;28;20029;-80
2022/12/11 05:21:11;;;;;;;18.15;8.40;;;;;;;;;;5062125;28;20039;-79
2022/12/11 05:23:37;;;;;;;15.20;7.38;;;;;;;;;;5058564;28;20036;-79
2022/12/11 05:26:14;;;;;;;20.60;8.85;;;;;;;;;;5059803;28;20046;-79
2022/12/11 05:28:41;;;;;;;19.58;10.18;;;;;;;;;;5061982;28;20037;-78
2022/12/11 05:31:12;;;;;;;15.48;7.28;;;0.30;99.90;;;;;;5065945;28;20113;-80
2022/12/11 05:33:38;;;;;;;19.52;8.68;;;;;;;;;;5060405;28;20033;-80
2022/12/11 05:36:04;;;;;;;15.70;8.48;;;;;;;;;;5064617;28;20037;-78
2022/12/11 05:38:30;;;;;;;13.02;6.50;;;;;;;;;;5062108;28;20408;-80
2022/12/11 05:41:06;;;;;;;16.05;7.47;;;0.20;99.90;;;;;;5062117;28;20020;-78
2022/12/11 05:43:33;;;;;;;14.13;7.15;;;0.20;99.90;;;;;;5055854;28;20029;-78
2022/12/11 05:46:09;;;;;;;17.42;7.80;;;;;;;;;;5066376;28;20107;-79
2022/12/11 05:48:36;;;;;;;19.60;8.63;;;;;;;;;;5065074;28;20039;-78
2022/12/11 05:51:03;;;;;;;12.52;7.10;;;;;;;;;;5068288;28;20013;-78
2022/12/11 05:53:29;;;;;;;14.52;7.88;;;;;;;;;;5060093;28;20074;-78
2022/12/11 05:56:03;;;;;;;17.13;7.93;;;-0.60;99.90;;;;;;5066339;28;20068;-79
2022/12/11 05:58:30;;;;;;;18.52;9.05;;;;;;;;;;5061781;28;20100;-79
2022/12/11 06:00:56;;;;;;;17.17;9.43;;;;;;;;;;5063657;28;20050;-80
2022/12/11 06:03:22;;;;;;;13.32;7.47;;;;;;;;;;5067420;28;20104;-81
2022/12/11 06:05:48;;;;;;;18.33;8.85;;;;;;;;;;5067242;28;20025;-79
2022/12/11 06:08:14;;;;;;;16.17;7.50;;;;;;;;;;5068509;28;20127;-79
2022/12/11 06:10:49;;;;;;;15.63;7.57;;;;;;;;;;5066134;28;23322;-79
2022/12/11 06:13:16;;;;;;;12.57;6.95;;;;;;;;;;5067000;28;20636;-80
2022/12/11 06:15:42;;;;;;;15.27;8.35;;;;;;;;;;5067359;28;20017;-79
2022/12/11 06:18:08;;;;;;;20.10;8.43;;;;;;;;;;5068090;28;20032;-79
2022/12/11 06:20:35;;;;;;;21.45;9.18;;;;;;;;;;5061481;28;20024;-78
2022/12/11 06:23:01;;;;;;;11.70;6.97;;;;;;;;;;5059222;28;20070;-79
2022/12/11 06:25:27;;;;;;;19.80;7.75;;;;;;;;;;5063103;28;20024;-80
2022/12/11 06:27:53;;;;;;;13.55;7.47;;;;;;;;;;5063632;28;20033;-78
2022/12/11 06:30:19;;;;;;;13.60;7.35;;;;;;;;;;5060826;28;20044;-80
2022/12/11 06:32:45;;;;;;;21.08;8.80;;;;;;;;;;5066200;28;20431;-78
2022/12/11 06:35:11;;;;;;;17.30;6.80;;;;;;;;;;5064652;28;20052;-79
2022/12/11 06:37:39;;;;;;;17.23;8.98;;;;;;;;;;5059128;28;20485;-78
2022/12/11 06:40:05;;;;;;;13.82;7.18;;;;;;;;;;5066291;28;20024;-79
2022/12/11 06:42:31;;;;;;;19.55;8.30;;;;;;;;;;5060644;28;20524;-79
2022/12/11 06:44:58;;;;;;;21.42;8.27;;;;;;;;;;5062540;28;20025;-78
2022/12/11 06:47:28;;;;;;;18.60;9.25;;;;;;;;;;5063881;28;20071;-78
2022/12/11 06:49:54;;;;;;;14.35;7.18;;;;;;;;;;5064822;28;20032;-79
2022/12/11 06:52:20;;;;;;;14.13;7.63;;;;;;;;;;5066585;28;20032;-79
2022/12/11 06:54:46;;;;;;;20.90;9.85;;;;;;;;;;5064535;28;20033;-79
2022/12/11 06:57:12;;;;;;;18.75;8.25;;;;;;;;;;5053807;28;20062;-79
2022/12/11 06:59:38;;;;;;;14.93;8.57;;;;;;;;;;5066599;28;20044;-79
2022/12/11 07:02:04;;;;;;;15.20;8.20;;;;;;;;;;5062853;28;20481;-79
2022/12/11 07:04:30;;;;;;;17.35;8.02;;;;;;;;;;5066768;28;20055;-79
2022/12/11 07:06:56;;;;;;;20.02;9.68;;;;;;;;;;5061241;28;20113;-78
2022/12/11 07:09:23;;;;;;;20.65;8.65;;;;;;;;;;5064239;28;20039;-78
2022/12/11 07:11:50;;;;;;;20.10;10.05;;;;;;;;;;5063333;28;20038;-79
2022/12/11 07:14:17;;;;;;;21.48;9.00;;;;;;;;;;5062654;28;20127;-79
2022/12/11 07:16:43;;;;;;;18.45;9.50;;;;;;;;;;5052034;28;20057;-81
2022/12/11 07:19:09;;;;;;;19.10;9.40;;;;;;;;;;5054253;28;20028;-80
2022/12/11 07:21:35;;;;;;;22.20;10.93;;;;;;;;;;5055580;28;20260;-80
2022/12/11 07:24:01;;;;;;;17.15;11.70;;;;;;;;;;5051349;28;20346;-79
2022/12/11 07:26:27;;;;;;;17.90;9.63;;;;;;;;;;5055304;28;20729;-80
2022/12/11 07:28:56;;;;;;;20.02;8.95;;;;;;;;;;5054816;28;20162;-80
2022/12/11 07:31:23;;;;;;;19.25;9.98;;;;;;;;;;5060323;28;20367;-80
2022/12/11 07:33:53;;;;;;;16.50;9.23;;;;;;;;;;5051001;28;20033;-79
2022/12/11 07:36:19;;;;;;;19.35;7.68;;;;;;;;;;5059539;28;20032;-79
2022/12/11 07:38:45;;;;;;;13.23;7.63;;;;;;;;;;5055002;28;20020;-78
2022/12/11 07:41:12;;;;;;;22.17;9.30;;;;;;;;;;5051994;28;20067;-79
2022/12/11 07:43:38;;;;;;;17.23;8.80;;;;;;;;;;5065873;28;20044;-79
2022/12/11 07:46:06;;;;;;;20.23;8.50;;;;;;;;;;5066324;28;20111;-79
2022/12/11 07:48:34;;;;;;;23.20;9.95;;;;;;;;;;5064803;28;20480;-79
2022/12/11 07:51:19;;;;;;;20.98;10.70;;;;;;;;;;5063544;28;20039;-79
2022/12/11 07:53:46;;;;;;;22.30;9.55;;;;;;;;;;5052878;28;21486;-78
2022/12/11 07:56:12;;;;;;;18.98;10.13;;;;;;;;;;5057537;28;20027;-79
2022/12/11 07:58:38;;;;;;;19.88;11.55;;;;;;;;;;5055857;28;20033;-78
2022/12/11 08:01:12;;;;;;;24.13;11.18;;;;;;;;;;5060750;28;20027;-78
2022/12/11 08:03:38;;;;;;;21.42;12.60;;;;;;;;;;5061294;28;20037;-78
2022/12/11 08:06:05;;;;;;;25.90;13.68;;;;;;;;;;5054599;28;20025;-78
2022/12/11 08:08:31;;;;;;;32.97;13.20;;;;;;;;;;5059891;28;20029;-78
2022/12/11 08:11:00;;;;;;;28.00;13.50;;;;;;;;;;5059124;28;20021;-78
2022/12/11 08:13:26;;;;;;;19.40;8.95;;;;;;;;;;5058027;28;20028;-78
2022/12/11 08:15:52;;;;;;;24.00;11.02;;;;;;;;;;5053063;28;20741;-78
2022/12/11 08:18:18;;;;;;;22.27;11.90;;;;;;;;;;5056689;28;20040;-78
2022/12/11 08:20:44;;;;;;;21.33;10.13;;;;;;;;;;5058147;28;20032;-79
2022/12/11 08:23:10;;;;;;;25.17;12.43;;;;;;;;;;5062079;28;20056;-79
2022/12/11 08:25:36;;;;;;;22.90;9.40;;;;;;;;;;5062441;28;20072;-79
2022/12/11 08:28:02;;;;;;;26.77;11.90;;;;;;;;;;5054926;28;20037;-78
2022/12/11 08:30:28;;;;;;;23.27;10.13;;;;;;;;;;5058148;28;20576;-78
2022/12/11 08:32:54;;;;;;;33.75;13.65;;;;;;;;;;5049679;28;20090;-78
2022/12/11 08:35:20;;;;;;;23.50;9.45;;;;;;;;;;5060403;28;20032;-78
2022/12/11 08:37:46;;;;;;;22.95;9.82;;;;;;;;;;5060409;28;20372;-78
2022/12/11 08:40:13;;;;;;;33.08;12.27;;;;;;;;;;5051355;28;20036;-78
2022/12/11 08:42:39;;;;;;;20.08;10.38;;;;;;;;;;5057865;28;20040;-78
2022/12/11 08:45:05;;;;;;;17.63;9.95;;;;;;;;;;5059855;28;20469;-79
2022/12/11 08:47:31;;;;;;;23.50;10.82;;;;;;;;;;5058886;28;20052;-79
2022/12/11 08:49:57;;;;;;;17.05;8.52;;;;;;;;;;5061389;28;20246;-78
2022/12/11 08:52:23;;;;;;;24.63;9.27;;;;;;;;;;5061716;28;20036;-78
2022/12/11 08:54:49;;;;;;;18.98;7.50;;;;;;;;;;5064669;28;20072;-80
2022/12/11 08:57:15;;;;;;;15.38;6.97;;;;;;;;;;5054794;28;20035;-80
2022/12/11 08:59:40;;;;;;;17.52;8.45;;;;;;;;;;5063921;28;20460;-79
2022/12/11 09:02:07;;;;;;;16.98;7.35;;;;;;;;;;5058829;28;20021;-80
2022/12/11 09:04:33;;;;;;;17.75;8.13;;;;;;;;;;5066421;28;20033;-80
2022/12/11 09:06:58;;;;;;;14.93;7.60;;;;;;;;;;5054228;28;20029;-80
2022/12/11 09:09:24;;;;;;;15.30;7.97;;;;;;;;;;5059058;28;20032;-81
2022/12/11 09:11:50;;;;;;;18.52;7.90;;;;;;;;;;5055813;28;20059;-80
2022/12/11 09:14:17;;;;;;;11.50;6.70;;;;;;;;;;5054586;28;20024;-79
2022/12/11 09:16:43;;;;;;;11.60;7.28;;;;;;;;;;5050869;28;20494;-79
2022/12/11 09:19:12;;;;;;;11.60;5.53;;;;;;;;;;5060907;28;20020;-80
2022/12/11 09:21:38;;;;;;;17.65;7.65;;;;;;;;;;5060501;28;20039;-80
2022/12/11 09:24:04;;;;;;;9.20;4.97;;;;;;;;;;5065331;28;20119;-79
2022/12/11 09:26:31;;;;;;;15.77;6.88;;;;;;;;;;5044597;28;20044;-79
2022/12/11 09:28:57;;;;;;;15.35;7.97;;;;;;;;;;5057831;28;20449;-79
2022/12/11 09:31:28;;;;;;;15.20;7.47;;;;;;;;;;5068004;28;20031;-79
2022/12/11 09:33:55;;;;;;;18.58;9.25;;;;;;;;;;5066192;28;20042;-79
2022/12/11 09:36:21;;;;;;;19.38;9.65;;;;;;;;;;5061880;28;20021;-79
2022/12/11 09:38:47;;;;;;;17.42;10.05;;;;;;;;;;5064799;28;20078;-80
2022/12/11 09:41:20;;;;;;;11.43;5.80;;;;;;;;;;5057065;28;20032;-80
2022/12/11 09:43:46;;;;;;;12.90;6.68;;;;;;;;;;5064399;28;20032;-80
2022/12/11 09:46:14;;;;;;;11.93;7.30;;;;;;;;;;5062386;28;20020;-79
2022/12/11 09:48:41;;;;;;;16.50;10.35;;;;;;;;;;5059530;28;20039;-81
2022/12/11 09:51:31;;;;;;;11.30;5.82;;;;;;;;;;5049963;28;20078;-81
2022/12/11 09:53:59;;;;;;;35.00;12.73;;;0.60;99.90;;;;;;5057968;28;20372;-81
2022/12/11 09:56:29;;;;;;;23.80;10.50;;;;;;;;;;5055215;28;20040;-81
2022/12/11 09:59:14;;;;;;;12.07;5.63;;;;;;;;;;5054133;28;20115;-82
2022/12/11 10:01:57;;;;;;;17.65;6.80;;;;;;;;;;5054043;28;20036;-82
2022/12/11 10:04:38;;;;;;;12.93;6.90;;;;;;;;;;5061474;28;20409;-82
2022/12/11 10:07:05;;;;;;;20.90;6.32;;;;;;;;;;5060821;28;20033;-82
2022/12/11 10:09:33;;;;;;;12.63;5.40;;;;;;;;;;5062519;28;20438;-81
2022/12/11 10:12:05;;;;;;;13.80;6.40;;;;;;;;;;5060604;28;21827;-83
2022/12/11 10:14:41;;;;;;;9.27;4.35;;;;;;;;;;5058720;28;20116;-82
2022/12/11 10:17:10;;;;;;;10.18;5.00;;;;;;;;;;5063393;28;20996;-82
2022/12/11 10:19:36;;;;;;;9.38;4.32;;;;;;;;;;5054831;28;20028;-85
2022/12/11 10:22:05;;;;;;;12.23;6.25;;;;;;;;;;5062390;28;20051;-82
2022/12/11 10:24:38;;;;;;;7.75;4.50;;;;;;;;;;5061576;28;20423;-85
2022/12/11 10:27:18;;;;;;;12.40;5.03;;;;;;;;;;5062821;28;20029;-82
2022/12/11 10:29:44;;;;;;;9.60;5.05;;;;;;;;;;5062512;28;20087;-83
2022/12/11 10:32:22;;;;;;;16.63;6.70;;;;;;;;;;5063293;28;20029;-82
2022/12/11 10:34:49;;;;;;;9.98;6.13;;;;;;;;;;5060504;28;20032;-82
2022/12/11 10:37:14;;;;;;;9.18;4.15;;;;;;;;;;5064978;28;20549;-83
2022/12/11 10:39:41;;;;;;;10.40;5.90;;;;;;;;;;5055959;28;20175;-81
2022/12/11 10:42:16;;;;;;;8.90;5.40;;;;;;;;;;5053689;28;20021;-83
2022/12/11 10:44:54;;;;;;;9.38;4.53;;;;;;;;;;5060535;28;20039;-84
2022/12/11 10:47:20;;;;;;;14.32;6.03;;;;;;;;;;5063454;28;20028;-82
2022/12/11 10:49:59;;;;;;;16.27;6.47;;;;;;;;;;5064702;28;20377;-83
2022/12/11 10:52:27;;;;;;;11.13;5.50;;;;;;;;;;5057707;28;20025;-82
2022/12/11 10:54:58;;;;;;;12.73;7.93;;;;;;;;;;5059159;28;20034;-81
2022/12/11 10:57:29;;;;;;;10.68;6.30;;;;;;;;;;5057828;28;20032;-81
2022/12/11 10:59:55;;;;;;;12.48;7.25;;;;;;;;;;5053829;28;20032;-82
2022/12/11 11:02:25;;;;;;;13.98;7.20;;;;;;;;;;5062367;28;20047;-82
2022/12/11 11:04:52;;;;;;;14.57;6.68;;;;;;;;;;5066212;28;20028;-82
2022/12/11 11:07:23;;;;;;;12.13;6.93;;;;;;;;;;5060379;28;20032;-83
2022/12/11 11:09:50;;;;;;;15.63;6.28;;;;;;;;;;5058603;28;20090;-83
2022/12/11 11:12:26;;;;;;;12.82;7.80;;;;;;;;;;5063970;28;20107;-83
2022/12/11 11:14:59;;;;;;;11.88;5.53;;;;;;;;;;5059805;28;20614;-84
2022/12/11 11:17:25;;;;;;;;;;;;;;;;;;5060670;28;20033;-86
2022/12/11 11:19:52;;;;;;;12.52;5.50;;;;;;;;;;5065085;28;19951;-86
2022/12/11 11:22:18;;;;;;;14.60;7.30;;;;;;;;;;5070566;28;20131;-83
2022/12/11 11:24:49;;;;;;;14.77;5.85;;;;;;;;;;5051796;28;20024;-83
2022/12/11 11:27:21;;;;;;;16.38;7.40;;;;;;;;;;5051789;28;20377;-81
2022/12/11 11:29:54;;;;;;;11.05;6.05;;;;;;;;;;5055400;28;20043;-82
2022/12/11 11:32:23;;;;;;;14.93;7.97;;;;;;;;;;5071796;28;20036;-85
2022/12/11 11:34:49;;;;;;;27.17;8.15;;;;;;;;;;5062650;28;20228;-80
2022/12/11 11:37:29;;;;;;;14.57;6.78;;;;;;;;;;5060795;28;20036;-81
2022/12/11 11:40:01;;;;;;;17.75;8.55;;;0.00;99.90;;;;;;5072098;28;20028;-81
2022/12/11 11:42:37;;;;;;;18.75;9.48;;;;;;;;;;5058992;28;20035;-80
2022/12/11 11:45:09;;;;;;;12.80;7.57;;;;;;;;;;5070459;28;20455;-81
2022/12/11 11:47:38;;;;;;;15.02;7.28;;;;;;;;;;5059505;28;20052;-80
2022/12/11 11:50:21;;;;;;;14.07;6.57;;;;;;;;;;5063360;28;20029;-81
2022/12/11 11:52:50;;;;;;;14.18;6.43;;;;;;;;;;5055996;28;20029;-81
2022/12/11 11:55:19;;;;;;;13.93;7.72;;;;;;;;;;5064198;28;20027;-80
2022/12/11 11:57:48;;;;;;;15.45;8.15;;;;;;;;;;5063323;28;20028;-79
2022/12/11 12:00:17;;;;;;;14.43;6.63;;;;;;;;;;5061555;28;20036;-80
2022/12/11 12:02:45;;;;;;;19.80;7.57;;;;;;;;;;5059084;28;20021;-80
2022/12/11 12:05:12;;;;;;;22.67;9.10;;;;;;;;;;5053910;28;20122;-82
2022/12/11 12:07:41;;;;;;;11.73;7.43;;;;;;;;;;5058123;28;20021;-82
2022/12/11 12:10:14;;;;;;;13.25;6.78;;;;;;;;;;5064781;28;20374;-81
2022/12/11 12:12:43;;;;;;;16.33;7.05;;;;;;;;;;5060885;28;20029;-82
2022/12/11 12:15:17;;;;;;;13.15;6.40;;;;;;;;;;5055790;28;20032;-81
2022/12/11 12:17:46;;;;;;;13.30;6.65;;;;;;;;;;5061360;28;20028;-79
2022/12/11 12:20:15;;;;;;;12.45;7.10;;;;;;;;;;5062297;28;20044;-82
2022/12/11 12:22:52;;;;;;;14.82;7.80;;;;;;;;;;5063309;28;20116;-80
2022/12/11 12:25:18;;;;;;;16.42;8.82;;;;;;;;;;5061934;28;20032;-82
2022/12/11 12:28:06;;;;;;;15.32;8.63;;;0.70;99.90;;;;;;5051023;28;20055;-80
2022/12/11 12:30:39;;;;;;;17.50;8.50;;;;;;;;;;5063615;28;20064;-80
2022/12/11 12:33:14;;;;;;;36.03;17.67;;;;;;;;;;5051371;28;20059;-81
2022/12/11 12:35:48;;;;;;;18.58;8.95;;;;;;;;;;5059286;28;20074;-81
2022/12/11 12:38:29;;;;;;;13.70;7.13;;;;;;;;;;5066698;28;20036;-80
2022/12/11 12:41:01;;;;;;;11.18;7.13;;;;;;;;;;5053514;28;20554;-80
2022/12/11 12:43:46;;;;;;;10.43;5.40;;;;;;;;;;5057322;28;20040;-82
2022/12/11 12:46:17;;;;;;;13.63;6.60;;;0.40;99.90;;;;;;5061192;28;20300;-82
2022/12/11 12:48:44;;;;;;;11.57;6.85;;;;;;;;;;5063354;28;20029;-79
2022/12/11 12:51:13;;;;;;;14.95;8.68;;;;;;;;;;5064782;28;20400;-80
2022/12/11 12:53:41;;;;;;;15.90;8.25;;;;;;;;;;5058098;28;20043;-81
2022/12/11 12:56:07;;;;;;;11.23;6.05;;;;;;;;;;5057834;28;20028;-82
2022/12/11 12:58:33;;;;;;;12.48;5.82;;;;;;;;;;5065109;28;20032;-80
2022/12/11 13:01:26;;;;;;;18.42;6.97;;;;;;;;;;5060480;28;20028;-79
2022/12/11 13:03:56;;;;;;;18.23;7.90;;;;;;;;;;5063544;28;20032;-79
2022/12/11 13:06:29;;;;;;;13.73;6.30;;;;;;;;;;5057449;28;20047;-80
2022/12/11 13:08:55;;;;;;;14.98;6.25;;;;;;;;;;5064450;28;20032;-80
2022/12/11 13:11:30;;;;;;;12.02;6.45;;;;;;;;;;5060371;28;20090;-79
2022/12/11 13:14:02;;;;;;;15.07;7.25;;;;;;;;;;5063792;28;20484;-79
2022/12/11 13:16:36;;;;;;;17.42;6.97;;;;;;;;;;5059039;28;20106;-79
2022/12/11 13:19:02;;;;;;;16.92;8.65;;;;;;;;;;5058048;28;20025;-80
2022/12/11 13:21:30;;;;;;;14.35;6.70;;;;;;;;;;5058304;28;20033;-80
2022/12/11 13:24:15;;;;;;;14.55;7.53;;;;;;;;;;5060167;28;20129;-80
2022/12/11 13:26:41;;;;;;;15.18;6.45;;;;;;;;;;5064042;28;20055;-79
2022/12/11 13:29:27;;;;;;;13.40;7.47;;;;;;;;;;5060727;28;20032;-78
2022/12/11 13:31:57;;;;;;;13.05;6.72;;;;;;;;;;5062572;28;20142;-80
2022/12/11 13:34:24;;;;;;;13.27;7.03;;;;;;;;;;5063765;28;20121;-83
2022/12/11 13:36:53;;;;;;;17.88;7.50;;;;;;;;;;5061726;28;20028;-81
2022/12/11 13:39:22;;;;;;;11.35;6.55;;;;;;;;;;5060497;28;20594;-81
2022/12/11 13:41:52;;;;;;;13.93;7.07;;;;;;;;;;5060653;28;20046;-80
2022/12/11 13:44:21;;;;;;;12.52;6.78;;;;;;;;;;5062348;28;20033;-79
2022/12/11 13:46:49;;;;;;;14.38;5.60;;;;;;;;;;5064010;28;20040;-80
2022/12/11 13:49:20;;;;;;;16.95;8.45;;;;;;;;;;5062864;28;20040;-81
2022/12/11 13:51:51;;;;;;;15.02;6.90;;;;;;;;;;5053607;28;20163;-81
2022/12/11 13:54:18;;;;;;;15.23;7.00;;;;;;;;;;5065660;28;20577;-82
2022/12/11 13:56:58;;;;;;;12.15;6.95;;;;;;;;;;5067143;28;20025;-81
2022/12/11 13:59:25;;;;;;;20.92;8.52;;;;;;;;;;5058984;28;20029;-81
2022/12/11 14:01:54;;;;;;;16.58;7.53;;;0.30;99.90;;;;;;5061541;28;20047;-82
2022/12/11 14:04:21;;;;;;;17.77;7.57;;;;;;;;;;5060728;28;20503;-81
2022/12/11 14:06:48;;;;;;;16.67;7.60;;;0.40;99.90;;;;;;5063748;28;20035;-80
2022/12/11 14:09:19;;;;;;;18.10;8.35;;;0.30;99.90;;;;;;5062805;28;20060;-80
2022/12/11 14:11:46;;;;;;;16.33;8.23;;;;;;;;;;5065042;28;20069;-80
2022/12/11 14:14:42;;;;;;;9.88;4.97;;;0.30;99.90;;;;;;5069904;28;20103;-81
2022/12/11 14:17:15;;;;;;;13.07;6.15;;;;;;;;;;5069095;28;20028;-80
2022/12/11 14:19:46;;;;;;;15.30;7.20;;;;;;;;;;5075506;28;20020;-80
2022/12/11 14:22:41;;;;;;;17.38;8.30;;;;;;;;;;5067636;28;20047;-79
2022/12/11 14:25:17;;;;;;;15.73;8.95;;;;;;;;;;5061859;28;20583;-81
2022/12/11 14:27:47;;;;;;;29.08;7.50;;;;;;;;;;5066074;28;20033;-81
2022/12/11 14:30:19;;;;;;;18.50;9.23;;;;;;;;;;5058368;28;20036;-80
2022/12/11 14:32:45;;;;;;;15.77;8.70;;;;;;;;;;5064122;28;20599;-80
2022/12/11 14:35:24;;;;;;;24.27;9.85;;;;;;;;;;5061598;28;20024;-80
2022/12/11 14:37:51;;;;;;;22.50;9.27;;;;;;;;;;5065117;28;20025;-81
2022/12/11 14:40:18;;;;;;;26.13;8.50;;;;;;;;;;5066965;28;20024;-82
2022/12/11 14:42:47;;;;;;;21.38;9.00;;;;;;;;;;5059125;28;20114;-80